KFFA/FFA METAR and TAF weather

Enter ICAO airport designator
Station Type Date Time Source
KFFA METAR 2021/04/13 09:15 UTC NOAA

KFFA 130915Z AUTO 35007KT 320V040 10SM OVC009 10/08 A2991 RMK AO2 T00950082


Station Type Date Time Source
KFFA Decoded METAR 2021/04/13 09:15 UTC NOAA

Kill Devil Hills, First Flight Airport, NC, United States (KFFA) 36-01N 075-40W
Apr 13, 2021 - 05:15 AM EDT / 2021.04.13 0915 UTC
Wind: from the N (350 degrees) at 8 MPH (7 KT) (direction variable):0
Visibility: 10 mile(s):0
Sky conditions: overcast
Temperature: 49.1 F (9.5 C)
Dew Point: 46.8 F (8.2 C)
Relative Humidity: 91%
Pressure (altimeter): 29.91 in. Hg (1012 hPa)
ob: KFFA 130915Z AUTO 35007KT 320V040 10SM OVC009 10/08 A2991 RMK AO2 T00950082
cycle: 9

Station Type Date Time Source
KFFA TAF UTC NOAA

Error!

Example: see airport list